Time;durP1;ratioP1;P1;durP2;ratioP2;P2;SDS_P1;SDS_P2;PMS_P1;PMS_P2;Temp;Humidity;BMP_temperature;BMP_pressure;BME280_temperature;BME280_humidity;BME280_pressure;Samples;Min_cycle;Max_cycle;Signal;HPM_P1;HPM_P2
2022/01/06 00:00:08;;;;;;;5.43;1.97;;;4.90;99.90;;;;;;5053212;28;20296;-75
2022/01/06 00:02:34;;;;;;;7.23;2.13;;;4.90;99.90;;;;;;5052590;28;20618;-75
2022/01/06 00:05:00;;;;;;;10.97;2.63;;;4.90;99.90;;;;;;5034902;28;20206;-75
2022/01/06 00:07:26;;;;;;;9.13;2.43;;;4.90;99.90;;;;;;5034458;28;20221;-75
2022/01/06 00:09:52;;;;;;;7.13;2.27;;;4.90;99.90;;;;;;5051979;28;20568;-75
2022/01/06 00:12:21;;;;;;;10.23;2.10;;;4.90;99.90;;;;;;5034624;28;20199;-75
2022/01/06 00:15:09;;;;;;;4.40;1.80;;;4.90;99.90;;;;;;5034114;28;20179;-75
2022/01/06 00:17:46;;;;;;;8.73;1.87;;;4.90;99.90;;;;;;5033975;28;20210;-75
2022/01/06 00:23:22;;;;;;;7.37;1.80;;;4.90;99.90;;;;;;5044954;28;20314;-75
2022/01/06 00:25:49;;;;;;;5.93;1.57;;;4.90;99.90;;;;;;5051395;28;20773;-75
2022/01/06 00:28:16;;;;;;;8.03;1.97;;;4.90;99.90;;;;;;5035035;28;20207;-75
2022/01/06 00:30:41;;;;;;;6.03;2.00;;;5.00;99.90;;;;;;5033490;28;20213;-76
2022/01/06 00:33:07;;;;;;;6.90;1.97;;;5.00;99.90;;;;;;5052573;28;20698;-76
2022/01/06 00:35:32;;;;;;;7.30;1.90;;;5.00;99.90;;;;;;5051088;28;20235;-76
2022/01/06 00:37:58;;;;;;;6.63;2.10;;;5.00;99.90;;;;;;5051089;28;20246;-76
2022/01/06 00:40:24;;;;;;;7.50;1.83;;;5.00;99.90;;;;;;5033303;28;20207;-76
2022/01/06 00:42:49;;;;;;;6.27;2.00;;;4.90;99.90;;;;;;5033130;28;20217;-73
2022/01/06 00:45:15;;;;;;;7.93;2.00;;;4.80;99.90;;;;;;5033041;28;20544;-73
2022/01/06 00:47:40;;;;;;;5.83;1.30;;;4.70;99.90;;;;;;5033556;28;20177;-73
2022/01/06 00:50:06;;;;;;;4.37;1.60;;;4.50;99.90;;;;;;5033178;28;20214;-74
2022/01/06 00:52:33;;;;;;;4.10;1.73;;;4.40;99.90;;;;;;5032851;28;20245;-75
2022/01/06 00:54:58;;;;;;;5.07;1.60;;;4.40;99.90;;;;;;5033119;28;20207;-74
2022/01/06 00:57:24;;;;;;;4.60;1.70;;;4.40;99.90;;;;;;5035105;28;20670;-74
2022/01/06 00:59:50;;;;;;;5.60;1.73;;;4.30;99.90;;;;;;5034724;28;20220;-73
2022/01/06 01:02:15;;;;;;;3.83;1.70;;;4.20;99.90;;;;;;5033033;28;20209;-74
2022/01/06 01:04:41;;;;;;;5.93;1.73;;;4.20;99.90;;;;;;5032618;28;20219;-73
2022/01/06 01:07:06;;;;;;;3.97;1.90;;;4.10;99.90;;;;;;5032211;28;20210;-74
2022/01/06 01:09:32;;;;;;;3.50;1.60;;;4.10;99.90;;;;;;5032113;28;20585;-74
2022/01/06 01:12:02;;;;;;;3.47;1.40;;;4.00;99.90;;;;;;5033579;28;20288;-74
2022/01/06 01:14:31;;;;;;;6.80;2.23;;;4.00;99.90;;;;;;5032538;28;20233;-74
2022/01/06 01:16:59;;;;;;;4.70;1.27;;;3.90;99.90;;;;;;5033091;28;20673;-74
2022/01/06 01:19:26;;;;;;;3.53;1.30;;;3.80;99.90;;;;;;5032137;28;20207;-74
2022/01/06 01:21:53;;;;;;;5.67;1.30;;;3.80;99.90;;;;;;5032641;28;20620;-74
2022/01/06 01:24:18;;;;;;;3.87;1.80;;;3.70;99.90;;;;;;5032359;28;20172;-74
2022/01/06 01:26:44;;;;;;;4.43;1.10;;;3.60;99.90;;;;;;5034761;28;20186;-74
2022/01/06 01:29:15;;;;;;;4.87;1.43;;;3.60;99.90;;;;;;5032316;28;20271;-74
2022/01/06 01:31:52;;;;;;;3.17;1.10;;;3.50;99.90;;;;;;5032528;28;20217;-75
2022/01/06 01:34:23;;;;;;;8.47;1.87;;;3.50;99.90;;;;;;5032470;28;20210;-74
2022/01/06 01:36:49;;;;;;;5.30;1.80;;;3.50;99.90;;;;;;5033284;28;20200;-74
2022/01/06 01:39:15;;;;;;;4.67;1.40;;;3.30;99.90;;;;;;5050034;28;20568;-73
2022/01/06 01:41:41;;;;;;;7.10;1.50;;;3.30;99.90;;;;;;5032809;28;20257;-74
2022/01/06 01:44:12;;;;;;;2.80;1.20;;;3.20;99.90;;;;;;5050190;28;20608;-74
2022/01/06 01:46:45;;;;;;;6.15;1.95;;;3.30;99.90;;;;;;5047774;28;20399;-74
2022/01/06 01:49:44;;;;;;;2.13;1.30;;;3.30;99.90;;;;;;5032021;28;20207;-74
2022/01/06 01:52:00;;;;;;;5.20;1.70;;;3.30;99.90;;;;;;5042862;28;20226;-74
2022/01/06 01:54:25;;;;;;;5.77;1.60;;;3.40;99.90;;;;;;5048872;28;20189;-73
2022/01/06 01:56:51;;;;;;;3.73;1.07;;;3.40;99.90;;;;;;5052806;28;20178;-74
2022/01/06 01:59:17;;;;;;;3.80;1.30;;;3.40;99.90;;;;;;5049729;28;20280;-74
2022/01/06 02:01:43;;;;;;;3.87;1.70;;;3.40;99.90;;;;;;5032301;28;20578;-74
2022/01/06 02:04:08;;;;;;;4.27;1.40;;;3.50;99.90;;;;;;5032444;28;20641;-74
2022/01/06 02:06:34;;;;;;;6.77;1.70;;;3.50;99.90;;;;;;5050438;28;20211;-74
2022/01/06 02:09:00;;;;;;;3.47;1.60;;;3.60;99.90;;;;;;5032650;28;20189;-74
2022/01/06 02:11:26;;;;;;;5.47;1.53;;;3.60;99.90;;;;;;5032790;28;20289;-74
2022/01/06 02:13:58;;;;;;;4.50;1.33;;;3.50;99.90;;;;;;5049084;28;20276;-74
2022/01/06 02:16:25;;;;;;;5.70;1.70;;;3.50;99.90;;;;;;5032270;28;20581;-74
2022/01/06 02:18:52;;;;;;;4.13;1.20;;;3.50;99.90;;;;;;5033281;28;20203;-74
2022/01/06 02:21:19;;;;;;;5.70;1.63;;;3.50;99.90;;;;;;5053714;28;20241;-75
2022/01/06 02:23:45;;;;;;;6.03;1.60;;;3.50;99.90;;;;;;5036028;28;20175;-74
2022/01/06 02:26:12;;;;;;;4.67;1.37;;;3.40;99.90;;;;;;5036229;28;20229;-74
2022/01/06 02:28:40;;;;;;;8.43;1.27;;;3.50;99.90;;;;;;5049628;28;20555;-73
2022/01/06 02:31:06;;;;;;;3.50;1.10;;;3.50;99.90;;;;;;5049076;28;20266;-74
2022/01/06 02:33:31;;;;;;;4.37;1.33;;;3.50;99.90;;;;;;5036202;28;20214;-74
2022/01/06 02:35:57;;;;;;;6.43;1.70;;;3.50;99.90;;;;;;5036055;28;20232;-74
2022/01/06 02:38:23;;;;;;;4.57;1.67;;;3.60;99.90;;;;;;5035120;28;20571;-73
2022/01/06 02:40:48;;;;;;;4.70;1.33;;;3.60;99.90;;;;;;5053401;28;20694;-74
2022/01/06 02:43:17;;;;;;;2.50;1.13;;;3.50;99.90;;;;;;5034955;28;20219;-74
2022/01/06 02:45:44;;;;;;;5.37;1.67;;;3.50;99.90;;;;;;5053192;28;20558;-74
2022/01/06 02:48:10;;;;;;;2.87;1.70;;;3.60;99.90;;;;;;5035246;28;20183;-74
2022/01/06 02:50:38;;;;;;;9.37;2.07;;;3.50;99.90;;;;;;5035765;28;20261;-75
2022/01/06 02:53:05;;;;;;;2.90;1.63;;;3.50;99.90;;;;;;5035253;28;20205;-74
2022/01/06 02:55:32;;;;;;;5.80;1.73;;;3.50;99.90;;;;;;5035059;28;20202;-74
2022/01/06 02:57:57;;;;;;;3.73;1.30;;;3.50;99.90;;;;;;5036528;28;20251;-74
2022/01/06 03:00:23;;;;;;;10.07;2.20;;;3.50;99.90;;;;;;5034813;28;20227;-74
2022/01/06 03:02:48;;;;;;;6.33;1.67;;;3.50;99.90;;;;;;5044443;28;20279;-74
2022/01/06 03:05:15;;;;;;;4.17;1.27;;;3.50;99.90;;;;;;5051616;28;20288;-74
2022/01/06 03:07:42;;;;;;;3.17;1.37;;;3.50;99.90;;;;;;5052930;28;20701;-75
2022/01/06 03:10:11;;;;;;;7.77;1.97;;;3.50;99.90;;;;;;5034539;28;20685;-74
2022/01/06 03:12:40;;;;;;;2.83;1.30;;;3.40;99.90;;;;;;5035092;28;20234;-73
2022/01/06 03:15:08;;;;;;;3.70;1.60;;;3.40;99.90;;;;;;5035195;28;20181;-74
2022/01/06 03:17:34;;;;;;;7.83;1.40;;;3.40;99.90;;;;;;5033325;28;20571;-74
2022/01/06 03:20:00;;;;;;;3.73;1.17;;;3.40;99.90;;;;;;5050876;28;20250;-74
2022/01/06 03:22:26;;;;;;;2.83;1.20;;;3.30;99.90;;;;;;5052772;28;20731;-74
2022/01/06 03:24:51;;;;;;;2.83;1.13;;;3.30;99.90;;;;;;5052384;28;20194;-74
2022/01/06 03:27:17;;;;;;;4.97;1.37;;;3.20;99.90;;;;;;5052954;28;20181;-74
2022/01/06 03:29:42;;;;;;;3.97;1.83;;;3.20;99.90;;;;;;5033823;28;20572;-74
2022/01/06 03:32:08;;;;;;;3.93;1.27;;;3.20;99.90;;;;;;5034786;28;20627;-75
2022/01/06 03:34:34;;;;;;;4.67;1.30;;;3.10;99.90;;;;;;5034388;28;20202;-75
2022/01/06 03:37:01;;;;;;;4.10;0.77;;;3.00;99.90;;;;;;5030486;28;20217;-75
2022/01/06 03:39:27;;;;;;;4.37;1.23;;;2.80;99.90;;;;;;5049360;28;20187;-76
2022/01/06 03:41:53;;;;;;;5.17;0.90;;;2.80;99.90;;;;;;5052713;28;20686;-74
2022/01/06 03:44:19;;;;;;;6.33;1.70;;;2.70;99.90;;;;;;5051995;28;20290;-74
2022/01/06 03:46:45;;;;;;;4.80;1.07;;;2.60;99.90;;;;;;5034109;28;20205;-74
2022/01/06 03:49:10;;;;;;;2.83;1.00;;;2.50;99.90;;;;;;5051661;28;20207;-74
2022/01/06 03:51:36;;;;;;;3.83;1.20;;;2.50;99.90;;;;;;5051897;28;20212;-74
2022/01/06 03:54:02;;;;;;;7.17;1.10;;;2.50;99.90;;;;;;5034492;28;20177;-74
2022/01/06 03:56:28;;;;;;;3.83;1.10;;;2.50;99.90;;;;;;5034196;28;20682;-74
2022/01/06 03:58:53;;;;;;;2.47;0.90;;;2.30;99.90;;;;;;5033607;28;20199;-74
2022/01/06 04:01:19;;;;;;;3.93;1.10;;;2.30;99.90;;;;;;5033905;28;20704;-74
2022/01/06 04:03:47;;;;;;;3.47;0.70;;;2.20;99.90;;;;;;5033637;28;20240;-74
2022/01/06 04:06:13;;;;;;;2.77;0.90;;;2.20;99.90;;;;;;5033994;28;20233;-74
2022/01/06 04:08:38;;;;;;;5.20;1.47;;;2.10;99.90;;;;;;5051485;28;20597;-74
2022/01/06 04:11:04;;;;;;;6.30;1.17;;;2.10;99.90;;;;;;5051574;28;20281;-74
2022/01/06 04:13:29;;;;;;;2.60;1.13;;;2.10;99.90;;;;;;5033340;28;20282;-75
2022/01/06 04:15:55;;;;;;;3.63;1.13;;;2.00;99.90;;;;;;5033401;28;20295;-74
2022/01/06 04:18:21;;;;;;;3.53;1.20;;;2.00;99.90;;;;;;5033003;28;20535;-73
2022/01/06 04:20:46;;;;;;;4.33;2.03;;;2.00;99.90;;;;;;5051952;28;20234;-75
2022/01/06 04:23:12;;;;;;;3.77;0.90;;;1.90;99.90;;;;;;5051195;28;20215;-74
2022/01/06 04:25:37;;;;;;;3.57;1.40;;;2.00;99.90;;;;;;5051141;28;20274;-74
2022/01/06 04:28:03;;;;;;;3.27;0.70;;;1.90;99.90;;;;;;5033236;28;20207;-75
2022/01/06 04:30:29;;;;;;;6.50;1.10;;;1.90;99.90;;;;;;5051078;28;20187;-74
2022/01/06 04:32:54;;;;;;;2.37;1.00;;;1.90;99.90;;;;;;5051947;28;20207;-74
2022/01/06 04:35:20;;;;;;;2.53;0.70;;;1.80;99.90;;;;;;5051102;28;20204;-74
2022/01/06 04:37:45;;;;;;;3.93;1.17;;;1.80;99.90;;;;;;5032474;28;20241;-75
2022/01/06 04:40:11;;;;;;;4.10;2.00;;;1.80;99.90;;;;;;5032802;28;20257;-74
2022/01/06 04:42:37;;;;;;;3.20;1.00;;;1.80;99.90;;;;;;5048063;23;20228;-71
2022/01/06 04:45:03;;;;;;;2.53;0.80;;;1.70;99.90;;;;;;5030219;28;20180;-71
2022/01/06 04:47:29;;;;;;;2.77;0.80;;;1.70;99.90;;;;;;5029607;28;20208;-70
2022/01/06 04:49:55;;;;;;;3.57;0.80;;;1.70;99.90;;;;;;5029146;28;20225;-71
2022/01/06 04:52:20;;;;;;;2.77;1.00;;;1.70;99.90;;;;;;5029715;28;20312;-72
2022/01/06 04:54:46;;;;;;;4.70;1.03;;;1.70;99.90;;;;;;5013011;28;20295;-71
2022/01/06 04:57:11;;;;;;;4.13;0.80;;;1.70;99.90;;;;;;5017957;28;20176;-72
2022/01/06 04:59:37;;;;;;;2.87;0.60;;;1.70;99.90;;;;;;5012921;28;20567;-71
2022/01/06 05:02:04;;;;;;;3.27;1.00;;;1.60;99.90;;;;;;5013217;28;20211;-71
2022/01/06 05:04:30;;;;;;;2.63;0.80;;;1.60;99.90;;;;;;5012772;28;20680;-71
2022/01/06 05:06:55;;;;;;;6.60;1.40;;;1.60;99.90;;;;;;5013109;28;20216;-71
2022/01/06 05:09:21;;;;;;;7.50;1.00;;;1.60;99.90;;;;;;5011899;28;20267;-69
2022/01/06 05:11:46;;;;;;;3.73;0.97;;;1.60;99.90;;;;;;5013726;28;20196;-71
2022/01/06 05:14:12;;;;;;;2.00;1.10;;;1.60;99.90;;;;;;5030307;28;20627;-71
2022/01/06 05:16:37;;;;;;;2.90;0.90;;;1.50;99.90;;;;;;5012981;28;20212;-71
2022/01/06 05:19:03;;;;;;;3.90;0.90;;;1.60;99.90;;;;;;5012440;28;20234;-71
2022/01/06 05:21:30;;;;;;;3.87;1.50;;;1.50;99.90;;;;;;5012499;28;20199;-71
2022/01/06 05:23:56;;;;;;;3.83;1.10;;;1.50;99.90;;;;;;5031220;28;20184;-71
2022/01/06 05:26:22;;;;;;;4.60;0.90;;;1.50;99.90;;;;;;5030316;28;20201;-70
2022/01/06 05:28:48;;;;;;;2.40;1.10;;;1.50;99.90;;;;;;5012530;28;20257;-71
2022/01/06 05:31:13;;;;;;;4.27;1.10;;;1.40;99.90;;;;;;5012648;28;20549;-71
2022/01/06 05:33:39;;;;;;;4.80;1.30;;;1.50;99.90;;;;;;5030100;28;20214;-71
2022/01/06 05:36:05;;;;;;;2.83;1.13;;;1.40;99.90;;;;;;5030991;28;20168;-72
2022/01/06 05:38:31;;;;;;;3.77;1.10;;;1.40;99.90;;;;;;5029486;28;20214;-71
2022/01/06 05:40:57;;;;;;;2.83;0.80;;;1.40;99.90;;;;;;5030271;28;20215;-71
2022/01/06 05:43:23;;;;;;;2.83;0.80;;;1.40;99.90;;;;;;5012181;28;20297;-71
2022/01/06 05:45:51;;;;;;;3.20;0.90;;;1.40;99.90;;;;;;5012545;28;20207;-71
2022/01/06 05:48:17;;;;;;;1.93;0.80;;;1.40;99.90;;;;;;5010802;28;20184;-71
2022/01/06 05:50:43;;;;;;;4.30;1.07;;;1.40;99.90;;;;;;5030726;28;20180;-71
2022/01/06 05:53:08;;;;;;;1.73;1.10;;;1.30;99.90;;;;;;5013243;28;20234;-71
2022/01/06 05:55:34;;;;;;;3.27;1.33;;;1.30;99.90;;;;;;5016507;28;20215;-71
2022/01/06 05:57:59;;;;;;;9.73;1.83;;;1.30;99.90;;;;;;5007105;28;20208;-71
2022/01/06 06:00:25;;;;;;;5.13;1.37;;;1.30;99.90;;;;;;5033856;28;20200;-71
2022/01/06 06:02:50;;;;;;;6.60;1.83;;;1.30;99.90;;;;;;5017007;28;20200;-71
2022/01/06 06:05:16;;;;;;;6.53;1.40;;;1.30;99.90;;;;;;5015998;28;20233;-71
2022/01/06 06:07:41;;;;;;;6.27;1.17;;;1.30;99.90;;;;;;5016319;28;20558;-71
2022/01/06 06:10:07;;;;;;;7.23;1.40;;;1.30;99.90;;;;;;5016193;28;20305;-71
2022/01/06 06:12:33;;;;;;;4.90;1.67;;;1.30;99.90;;;;;;5016259;28;20219;-71
2022/01/06 06:14:58;;;;;;;4.23;0.90;;;1.20;99.90;;;;;;5016527;28;20543;-71
2022/01/06 06:17:24;;;;;;;3.77;1.33;;;1.20;99.90;;;;;;5016250;28;20605;-71
2022/01/06 06:19:49;;;;;;;6.10;1.10;;;1.20;99.90;;;;;;5015567;28;20239;-71
2022/01/06 06:22:15;;;;;;;8.90;1.63;;;1.10;99.90;;;;;;5015983;28;20575;-71
2022/01/06 06:24:41;;;;;;;5.70;1.60;;;1.10;99.90;;;;;;5015735;28;20212;-72
2022/01/06 06:27:07;;;;;;;3.87;1.73;;;1.10;99.90;;;;;;5016792;28;20186;-71
2022/01/06 06:29:32;;;;;;;7.13;1.60;;;1.10;99.90;;;;;;5015503;28;20230;-71
2022/01/06 06:31:58;;;;;;;2.90;1.70;;;1.10;99.90;;;;;;5033861;28;20206;-71
2022/01/06 06:34:23;;;;;;;9.47;2.20;;;1.10;99.90;;;;;;5033358;28;20210;-71
2022/01/06 06:36:49;;;;;;;6.77;1.40;;;1.10;99.90;;;;;;5033712;28;20195;-71
2022/01/06 06:39:14;;;;;;;5.93;1.83;;;1.10;99.90;;;;;;5015210;28;20167;-71
2022/01/06 06:41:40;;;;;;;5.97;1.80;;;1.10;99.90;;;;;;5016159;28;20218;-71
2022/01/06 06:44:05;;;;;;;6.00;2.10;;;1.00;99.90;;;;;;5015380;28;20616;-72
2022/01/06 06:46:31;;;;;;;4.67;1.80;;;1.10;99.90;;;;;;5033592;28;20235;-71
2022/01/06 06:48:57;;;;;;;5.23;1.80;;;1.10;99.90;;;;;;5032929;28;20250;-72
2022/01/06 06:51:22;;;;;;;5.90;1.93;;;1.10;99.90;;;;;;5015686;28;20178;-71
2022/01/06 06:53:48;;;;;;;8.40;2.57;;;1.10;99.90;;;;;;5016493;28;20210;-71
2022/01/06 06:56:13;;;;;;;4.53;2.20;;;1.10;99.90;;;;;;5015602;28;20222;-71
2022/01/06 06:58:39;;;;;;;5.57;1.80;;;1.10;99.90;;;;;;5032165;28;20290;-71
2022/01/06 07:01:04;;;;;;;4.23;2.10;;;1.00;99.90;;;;;;5033122;28;20210;-71
2022/01/06 07:03:30;;;;;;;5.27;2.30;;;1.00;99.90;;;;;;5015120;28;20226;-71
2022/01/06 07:05:55;;;;;;;8.67;1.70;;;1.00;99.90;;;;;;5014622;28;20175;-71
2022/01/06 07:08:21;;;;;;;7.87;1.43;;;1.00;99.90;;;;;;5014662;28;20227;-71
2022/01/06 07:10:46;;;;;;;6.30;1.53;;;1.00;99.90;;;;;;5015156;28;20222;-71
2022/01/06 07:13:16;;;;;;;6.27;1.70;;;1.00;99.90;;;;;;5032872;28;20231;-71
2022/01/06 07:15:42;;;;;;;10.27;1.80;;;1.00;99.90;;;;;;5014859;28;20681;-72
2022/01/06 07:18:08;;;;;;;7.57;1.60;;;1.00;99.90;;;;;;5015129;28;20179;-71
2022/01/06 07:20:34;;;;;;;3.20;1.37;;;1.00;99.90;;;;;;5014647;28;20578;-71
2022/01/06 07:22:59;;;;;;;4.03;1.90;;;1.00;99.90;;;;;;5014904;28;20221;-71
2022/01/06 07:25:25;;;;;;;3.97;1.47;;;1.00;99.90;;;;;;5014517;28;20201;-71
2022/01/06 07:27:50;;;;;;;10.30;2.40;;;1.00;99.90;;;;;;5014792;28;20570;-72
2022/01/06 07:30:16;;;;;;;8.83;1.60;;;1.00;99.90;;;;;;5031945;28;20203;-71
2022/01/06 07:32:44;;;;;;;7.53;2.27;;;1.00;99.90;;;;;;5015556;28;20192;-72
2022/01/06 07:35:11;;;;;;;8.60;2.10;;;1.00;99.90;;;;;;5016211;28;20202;-72
2022/01/06 07:37:36;;;;;;;4.77;1.60;;;1.00;99.90;;;;;;5032201;28;20244;-72
2022/01/06 07:40:03;;;;;;;3.80;1.67;;;1.00;99.90;;;;;;5031986;28;20244;-70
2022/01/06 07:42:29;;;;;;;7.00;1.60;;;1.10;99.90;;;;;;5014203;28;20215;-71
2022/01/06 07:44:55;;;;;;;6.47;1.57;;;1.10;99.90;;;;;;5014877;28;20181;-71
2022/01/06 07:47:21;;;;;;;5.10;1.50;;;1.10;99.90;;;;;;5014437;28;20201;-69
2022/01/06 07:49:46;;;;;;;7.07;1.47;;;1.10;99.90;;;;;;5031587;28;20620;-70
2022/01/06 07:52:12;;;;;;;6.10;1.40;;;1.20;99.90;;;;;;5032057;28;20229;-71
2022/01/06 07:54:38;;;;;;;6.40;2.40;;;1.20;99.90;;;;;;5013935;28;20216;-71
2022/01/06 07:57:04;;;;;;;5.73;1.50;;;1.20;99.90;;;;;;5032926;28;20291;-71
2022/01/06 07:59:29;;;;;;;7.90;1.43;;;1.30;99.90;;;;;;5031250;28;20204;-71
2022/01/06 08:01:55;;;;;;;3.50;1.20;;;1.40;99.90;;;;;;5031941;28;20215;-71
2022/01/06 08:04:20;;;;;;;4.70;1.67;;;1.40;99.90;;;;;;5031964;28;20207;-71
2022/01/06 08:06:45;;;;;;;7.03;2.10;;;1.50;99.90;;;;;;5014191;28;20200;-71
2022/01/06 08:09:11;;;;;;;7.57;2.30;;;1.50;99.90;;;;;;5032271;28;20183;-72
2022/01/06 08:11:37;;;;;;;6.83;1.47;;;1.50;99.90;;;;;;5014790;28;20177;-73
2022/01/06 08:14:02;;;;;;;4.97;1.80;;;1.60;99.90;;;;;;5014913;28;20591;-71
2022/01/06 08:16:28;;;;;;;5.20;1.50;;;1.60;99.90;;;;;;5013632;28;20216;-73
2022/01/06 08:18:53;;;;;;;4.43;1.40;;;1.60;99.90;;;;;;5031580;28;20231;-71
2022/01/06 08:21:19;;;;;;;8.73;1.80;;;1.60;99.90;;;;;;5031314;28;20226;-71
2022/01/06 08:23:45;;;;;;;3.73;1.73;;;1.70;99.90;;;;;;5031947;28;20214;-71
2022/01/06 08:26:10;;;;;;;4.63;1.57;;;1.70;99.90;;;;;;5013902;28;20200;-72
2022/01/06 08:28:36;;;;;;;6.33;2.10;;;1.80;99.90;;;;;;5030968;28;20207;-72
2022/01/06 08:31:02;;;;;;;8.43;2.27;;;1.90;99.90;;;;;;5013682;28;20207;-72
2022/01/06 08:33:27;;;;;;;11.67;2.00;;;1.90;99.90;;;;;;5013485;28;20200;-72
2022/01/06 08:35:54;;;;;;;6.10;2.07;;;2.10;99.90;;;;;;5014070;28;20625;-73
2022/01/06 08:38:19;;;;;;;6.77;2.10;;;2.30;99.90;;;;;;5013324;28;20257;-72
2022/01/06 08:40:45;;;;;;;4.63;1.60;;;2.50;99.90;;;;;;5030750;28;20216;-72
2022/01/06 08:43:10;;;;;;;9.70;2.07;;;2.80;99.90;;;;;;5013487;28;20311;-71
2022/01/06 08:45:36;;;;;;;4.60;2.07;;;3.00;99.90;;;;;;5012825;28;20579;-71
2022/01/06 08:48:02;;;;;;;5.60;1.57;;;3.30;99.90;;;;;;5031417;28;20168;-70
2022/01/06 08:50:28;;;;;;;4.37;1.57;;;3.40;99.90;;;;;;5012930;28;20220;-72
2022/01/06 08:52:54;;;;;;;4.40;1.73;;;3.50;99.90;;;;;;5013463;28;20290;-70
2022/01/06 08:55:20;;;;;;;9.50;2.10;;;3.60;99.90;;;;;;5030606;28;20590;-71
2022/01/06 08:57:45;;;;;;;4.57;2.07;;;3.60;99.90;;;;;;5030841;28;20208;-70
2022/01/06 09:00:11;;;;;;;4.23;1.47;;;3.70;99.90;;;;;;5012715;28;20199;-71
2022/01/06 09:02:37;;;;;;;8.63;2.23;;;3.70;99.90;;;;;;5013707;28;20203;-70
2022/01/06 09:05:06;;;;;;;6.10;2.00;;;3.80;99.90;;;;;;5012742;28;20204;-70
2022/01/06 09:07:33;;;;;;;8.07;1.83;;;3.80;99.90;;;;;;5013133;28;20216;-70
2022/01/06 09:09:58;;;;;;;3.83;1.87;;;3.90;99.90;;;;;;5030359;28;20684;-71
2022/01/06 09:12:24;;;;;;;5.37;1.70;;;3.90;99.90;;;;;;5013267;28;20286;-71
2022/01/06 09:14:49;;;;;;;5.13;2.53;;;3.60;99.90;;;;;;5031309;28;20174;-72
2022/01/06 09:17:15;;;;;;;6.47;2.00;;;3.50;99.90;;;;;;5030853;28;20221;-71
2022/01/06 09:19:41;;;;;;;8.47;2.10;;;3.40;99.90;;;;;;5045279;28;20225;-71
2022/01/06 09:22:07;;;;;;;7.20;2.07;;;3.30;99.90;;;;;;5013179;28;20260;-71
2022/01/06 09:24:34;;;;;;;5.60;1.83;;;3.20;99.90;;;;;;5012600;28;20219;-70
2022/01/06 09:26:59;;;;;;;7.07;1.77;;;3.20;99.90;;;;;;5013848;28;20228;-71
2022/01/06 09:29:25;;;;;;;4.70;1.27;;;3.30;99.90;;;;;;5011979;28;20200;-71
2022/01/06 09:31:51;;;;;;;6.93;1.67;;;3.50;99.90;;;;;;5013824;28;20200;-71
2022/01/06 09:34:16;;;;;;;5.57;1.33;;;3.60;99.90;;;;;;5014762;28;20300;-71
2022/01/06 09:36:42;;;;;;;6.00;1.53;;;3.50;99.90;;;;;;5013952;28;20240;-71
2022/01/06 09:39:10;;;;;;;3.13;1.27;;;3.50;99.90;;;;;;5014767;28;20184;-72
2022/01/06 09:41:36;;;;;;;6.67;1.80;;;3.40;99.90;;;;;;5015237;28;20224;-72
2022/01/06 09:44:03;;;;;;;4.23;1.30;;;3.30;99.90;;;;;;5014447;28;20263;-72
2022/01/06 09:46:29;;;;;;;4.33;1.53;;;3.10;99.90;;;;;;5016102;28;20223;-72
2022/01/06 09:48:57;;;;;;;4.73;2.10;;;3.10;99.90;;;;;;5046029;28;20204;-72
2022/01/06 09:51:24;;;;;;;9.97;2.03;;;3.10;99.90;;;;;;5013135;28;20196;-72
2022/01/06 09:53:52;;;;;;;6.27;2.20;;;3.20;99.90;;;;;;5013354;28;20192;-72
2022/01/06 09:56:19;;;;;;;6.33;1.80;;;3.30;99.90;;;;;;5013129;28;20843;-71
2022/01/06 09:58:45;;;;;;;5.57;1.87;;;3.50;99.90;;;;;;5030259;28;20685;-72
2022/01/06 10:01:10;;;;;;;7.77;2.50;;;3.70;99.90;;;;;;5030430;28;20697;-71
2022/01/06 10:03:42;;;;;;;6.17;1.63;;;3.90;99.90;;;;;;5030335;28;20268;-71
2022/01/06 10:06:25;;;;;;;4.23;1.63;;;4.10;99.90;;;;;;5013109;28;20643;-71
2022/01/06 10:08:56;;;;;;;4.60;1.50;;;4.20;99.90;;;;;;5029027;28;20208;-71
2022/01/06 10:11:24;;;;;;;6.27;1.50;;;4.30;99.90;;;;;;5030283;28;20583;-72
2022/01/06 10:14:10;;;;;;;6.30;2.00;;;4.20;99.90;;;;;;5012522;28;20248;-72
2022/01/06 10:16:45;;;;;;;4.73;1.37;;;4.30;99.90;;;;;;5012356;28;20215;-72
2022/01/06 10:19:12;;;;;;;5.53;1.63;;;4.40;99.90;;;;;;5045738;28;20286;-72
2022/01/06 10:21:46;;;;;;;6.63;1.37;;;4.40;99.90;;;;;;5012269;28;20224;-72
2022/01/06 10:24:14;;;;;;;5.67;1.80;;;4.40;99.90;;;;;;5011527;28;20206;-72
2022/01/06 10:27:00;;;;;;;7.33;1.70;;;4.50;99.90;;;;;;5012825;28;20192;-72
2022/01/06 10:29:30;;;;;;;4.80;1.43;;;4.60;99.90;;;;;;5030308;28;20688;-72
2022/01/06 10:32:06;;;;;;;3.03;1.20;;;4.60;99.90;;;;;;5012512;28;20207;-72
2022/01/06 10:34:34;;;;;;;18.63;1.50;;;4.60;99.90;;;;;;5012470;28;20211;-72
2022/01/06 10:37:01;;;;;;;11.13;3.80;;;4.70;99.90;;;;;;5013160;28;20223;-72
2022/01/06 10:39:40;;;;;;;4.30;1.87;;;4.70;99.90;;;;;;5031045;28;20685;-72
2022/01/06 10:42:07;;;;;;;7.87;1.67;;;4.80;99.90;;;;;;5034395;28;20262;-72
2022/01/06 10:44:33;;;;;;;6.63;2.00;;;4.80;99.90;;;;;;5058659;23;20230;-70
2022/01/06 10:46:58;;;;;;;6.97;1.80;;;4.80;99.90;;;;;;5035130;28;20202;-70
2022/01/06 10:49:24;;;;;;;5.93;1.90;;;4.90;99.90;;;;;;5018728;28;20206;-70
2022/01/06 10:51:50;;;;;;;5.17;1.50;;;4.90;99.90;;;;;;5035711;28;20613;-70
2022/01/06 10:54:24;;;;;;;2.53;1.30;;;4.90;99.90;;;;;;5035491;28;20204;-70
2022/01/06 10:56:57;;;;;;;6.77;1.40;;;4.80;99.90;;;;;;5035903;28;20203;-70
2022/01/06 10:59:29;;;;;;;4.87;1.53;;;5.00;99.90;;;;;;5034140;28;20200;-70
2022/01/06 11:01:55;;;;;;;3.77;1.27;;;4.90;99.90;;;;;;5035098;28;20246;-70
2022/01/06 11:04:21;;;;;;;5.63;1.93;;;5.00;99.90;;;;;;5052783;28;20211;-69
2022/01/06 11:06:47;;;;;;;6.77;1.83;;;5.00;99.90;;;;;;5035053;28;20218;-70
2022/01/06 11:09:13;;;;;;;6.17;1.80;;;5.00;99.90;;;;;;5034579;28;20191;-70
2022/01/06 11:14:15;;;;;;;6.40;2.40;;;5.00;99.90;;;;;;5052774;28;20680;-70
2022/01/06 11:16:42;;;;;;;3.10;1.20;;;5.10;99.90;;;;;;5034265;28;20282;-70
2022/01/06 11:19:10;;;;;;;2.80;1.20;;;5.20;99.90;;;;;;5034465;28;20206;-70
2022/01/06 11:21:44;;;;;;;6.13;1.50;;;5.20;99.90;;;;;;5052267;28;20250;-70
2022/01/06 11:24:18;;;;;;;4.00;1.30;;;5.30;99.90;;;;;;5053279;28;20679;-70
2022/01/06 11:26:55;;;;;;;4.70;1.50;;;5.20;99.90;;;;;;5035074;28;20208;-69
2022/01/06 11:29:26;;;;;;;3.50;1.40;;;5.30;99.90;;;;;;5034299;28;20215;-70
2022/01/06 11:31:52;;;;;;;5.13;1.40;;;5.20;99.90;;;;;;5034500;28;20211;-69
2022/01/06 11:34:19;;;;;;;6.13;1.40;;;5.00;99.90;;;;;;5052140;28;20245;-70
2022/01/06 11:36:47;;;;;;;2.93;1.10;;;5.10;99.90;;;;;;5034309;28;20199;-69
2022/01/06 11:39:20;;;;;;;5.93;1.37;;;5.10;99.90;;;;;;5034146;28;20176;-70
2022/01/06 11:41:46;;;;;;;2.70;1.27;;;5.20;99.90;;;;;;5052698;28;20550;-69
2022/01/06 11:44:22;;;;;;;3.80;1.30;;;5.20;99.90;;;;;;5052019;28;20226;-70
2022/01/06 11:46:55;;;;;;;4.87;1.57;;;5.20;99.90;;;;;;5018219;28;20195;-70
2022/01/06 11:49:42;;;;;;;5.27;1.50;;;5.10;99.90;;;;;;5033666;28;20206;-70
2022/01/06 11:52:12;;;;;;;5.33;1.30;;;5.00;99.90;;;;;;5052002;28;20247;-70
2022/01/06 11:54:55;;;;;;;4.73;0.90;;;4.90;99.90;;;;;;5051899;28;20215;-70
2022/01/06 11:57:29;;;;;;;8.50;1.27;;;4.90;99.90;;;;;;5034366;28;20231;-70
2022/01/06 11:59:55;;;;;;;4.63;1.17;;;5.00;99.90;;;;;;5034211;28;20167;-70
2022/01/06 12:02:22;;;;;;;4.53;1.37;;;5.00;99.90;;;;;;5034178;28;20294;-70
2022/01/06 12:04:55;;;;;;;5.00;1.30;;;5.10;99.90;;;;;;5043435;28;20731;-70
2022/01/06 12:07:21;;;;;;;7.27;2.23;;;5.00;99.90;;;;;;5034003;28;20215;-70
2022/01/06 12:09:56;;;;;;;3.47;0.93;;;4.90;99.90;;;;;;5033285;28;20253;-70
2022/01/06 12:12:31;;;;;;;4.97;1.50;;;5.00;99.90;;;;;;5033677;28;20178;-70
2022/01/06 12:15:16;;;;;;;4.00;1.57;;;5.10;99.90;;;;;;5034181;28;20194;-70
2022/01/06 12:17:53;;;;;;;4.93;2.10;;;5.10;99.90;;;;;;5033649;28;20200;-70
2022/01/06 12:20:28;;;;;;;3.63;1.27;;;5.10;99.90;;;;;;5033549;28;20218;-70
2022/01/06 12:22:54;;;;;;;4.67;1.63;;;5.20;99.90;;;;;;5033837;28;20217;-70
2022/01/06 12:25:27;;;;;;;3.03;1.50;;;5.10;99.90;;;;;;5033194;28;20260;-70
2022/01/06 12:27:54;;;;;;;5.80;1.70;;;5.00;99.90;;;;;;5033482;28;20202;-70
2022/01/06 12:30:25;;;;;;;3.47;1.30;;;5.00;99.90;;;;;;5033221;28;20175;-70
2022/01/06 12:33:07;;;;;;;9.40;1.40;;;5.00;99.90;;;;;;5034147;28;20179;-70
2022/01/06 12:35:48;;;;;;;3.70;1.13;;;5.00;99.90;;;;;;5032843;28;20202;-70
2022/01/06 12:38:14;;;;;;;3.00;1.07;;;5.10;99.90;;;;;;5033332;28;20216;-70
2022/01/06 12:40:44;;;;;;;3.83;1.03;;;5.10;99.90;;;;;;5032604;28;20222;-70
2022/01/06 12:43:25;;;;;;;5.83;1.03;;;5.00;99.90;;;;;;5033285;28;20227;-70
2022/01/06 12:46:01;;;;;;;7.00;1.87;;;5.00;99.90;;;;;;5032792;28;20228;-70
2022/01/06 12:48:35;;;;;;;5.10;1.40;;;5.00;99.90;;;;;;5032212;28;20258;-70
2022/01/06 12:51:01;;;;;;;6.47;1.47;;;5.00;99.90;;;;;;5033819;28;20179;-70
2022/01/06 12:53:47;;;;;;;2.90;1.00;;;5.00;99.90;;;;;;5033218;28;20230;-70
2022/01/06 12:56:25;;;;;;;3.77;1.33;;;5.00;99.90;;;;;;5050798;28;20626;-70
2022/01/06 12:58:51;;;;;;;3.77;1.50;;;4.80;99.90;;;;;;5033081;28;20210;-70
2022/01/06 13:01:17;;;;;;;3.07;1.10;;;4.80;99.90;;;;;;5032911;28;20219;-70
2022/01/06 13:03:44;;;;;;;4.23;0.93;;;4.80;99.90;;;;;;5049717;28;20578;-70